createdAt,value
2018-11-26T00:00:26.954Z,43.17
2018-11-26T00:01:26.922Z,42.60
2018-11-26T00:03:21.230Z,43.08
2018-11-26T00:04:21.175Z,42.98
2018-11-26T00:06:14.455Z,42.60
2018-11-26T00:07:14.410Z,42.79
2018-11-26T00:09:08.721Z,43.36
2018-11-26T00:10:08.669Z,43.36
2018-11-26T00:12:01.984Z,43.27
2018-11-26T00:13:01.916Z,43.55
2018-11-26T00:14:55.225Z,42.60
2018-11-26T00:15:55.194Z,42.79
2018-11-26T00:17:48.509Z,43.55
2018-11-26T00:18:48.441Z,44.31
2018-11-26T00:20:41.752Z,44.31
2018-11-26T00:21:41.694Z,42.98
2018-11-26T00:23:35.014Z,42.98
2018-11-26T00:24:34.960Z,43.08
2018-11-26T00:26:29.268Z,43.08
2018-11-26T00:27:29.209Z,44.21
2018-11-26T00:29:22.629Z,46.11
2018-11-26T00:30:22.461Z,45.95
2018-11-26T00:32:15.831Z,45.19
2018-11-26T00:33:15.722Z,45.76
2018-11-26T00:35:09.019Z,46.23
2018-11-26T00:36:08.977Z,47.25
2018-11-26T00:38:02.298Z,47.16
2018-11-26T00:39:02.240Z,47.34
2018-11-26T00:40:55.530Z,47.16
2018-11-26T00:41:55.491Z,47.16
2018-11-26T00:43:50.000Z,47.06
2018-11-26T00:44:49.917Z,46.99
2018-11-26T00:46:43.227Z,46.88
2018-11-26T00:47:43.162Z,46.51
2018-11-26T00:49:37.504Z,46.69
2018-11-26T00:50:37.438Z,46.49
2018-11-26T00:52:30.758Z,46.80
2018-11-26T00:53:30.729Z,47.75
2018-11-26T00:55:24.051Z,47.25
2018-11-26T00:56:23.981Z,46.97
2018-11-26T00:58:18.329Z,45.26
2018-11-26T00:59:18.257Z,45.28
2018-11-26T01:01:11.573Z,45.00
2018-11-26T01:02:11.524Z,44.90
2018-11-26T01:04:04.814Z,44.34
2018-11-26T01:05:04.761Z,44.34
2018-11-26T01:06:58.039Z,44.53
2018-11-26T01:07:58.024Z,44.81
2018-11-26T01:09:51.316Z,45.00
2018-11-26T01:10:51.268Z,45.66
2018-11-26T01:12:44.570Z,45.85
2018-11-26T01:13:44.513Z,46.23
2018-11-26T01:15:37.909Z,46.70
2018-11-26T01:16:37.857Z,46.70
2018-11-26T01:18:31.158Z,46.04
2018-11-26T01:19:31.112Z,45.95
2018-11-26T01:21:24.443Z,45.76
2018-11-26T01:22:24.393Z,46.80
2018-11-26T01:24:17.709Z,46.33
2018-11-26T01:25:17.660Z,46.61
2018-11-26T01:27:10.962Z,46.51
2018-11-26T01:28:10.907Z,46.51
2018-11-26T01:30:04.247Z,47.47
2018-11-26T01:31:04.171Z,48.22
2018-11-26T01:32:57.498Z,49.65
2018-11-26T01:33:57.447Z,49.74
2018-11-26T01:35:51.749Z,50.22
2018-11-26T01:36:51.682Z,50.41
2018-11-26T01:38:44.983Z,51.55
2018-11-26T01:39:44.938Z,51.55
2018-11-26T01:41:38.265Z,49.27
2018-11-26T01:42:38.220Z,49.18
2018-11-26T01:44:31.658Z,51.45
2018-11-26T01:45:31.465Z,51.64
2018-11-26T01:47:24.775Z,50.60
2018-11-26T01:48:24.740Z,50.31
2018-11-26T01:50:18.081Z,49.46
2018-11-26T01:51:17.980Z,49.46
2018-11-26T01:53:12.292Z,49.84
2018-11-26T01:54:12.270Z,51.36
2018-11-26T01:56:05.563Z,51.26
2018-11-26T01:57:05.553Z,50.31
2018-11-26T01:58:58.819Z,50.60
2018-11-26T01:59:58.745Z,50.31
2018-11-26T02:01:53.087Z,52.69
2018-11-26T02:02:53.053Z,52.50
2018-11-26T02:04:46.348Z,52.40
2018-11-26T02:05:46.294Z,52.12
2018-11-26T02:07:39.142Z,51.83
2018-11-26T02:08:39.046Z,51.55
2018-11-26T02:10:32.378Z,52.40
2018-11-26T02:11:32.310Z,51.93
2018-11-26T02:13:25.627Z,51.74
2018-11-26T02:14:25.559Z,51.74
2018-11-26T02:16:18.882Z,51.93
2018-11-26T02:17:18.835Z,51.55
2018-11-26T02:19:12.121Z,52.78
2018-11-26T02:20:12.075Z,52.69
2018-11-26T02:22:06.412Z,53.16
2018-11-26T02:23:06.327Z,54.21
2018-11-26T02:24:59.636Z,54.68
2018-11-26T02:25:59.591Z,54.30
2018-11-26T02:27:52.899Z,54.39
2018-11-26T02:28:52.845Z,53.73
2018-11-26T02:30:47.132Z,54.21
2018-11-26T02:31:47.145Z,54.02
2018-11-26T02:33:40.400Z,54.02
2018-11-26T02:34:40.352Z,53.26
2018-11-26T02:36:34.664Z,54.02
2018-11-26T02:37:34.615Z,53.07
2018-11-26T02:39:28.954Z,52.78
2018-11-26T02:40:28.880Z,52.59
2018-11-26T02:42:22.201Z,52.50
2018-11-26T02:43:22.137Z,52.78
2018-11-26T02:45:16.445Z,52.50
2018-11-26T02:46:16.405Z,52.87
2018-11-26T02:48:09.722Z,52.50
2018-11-26T02:49:09.676Z,53.45
2018-11-26T02:51:02.983Z,53.35
2018-11-26T02:52:02.910Z,52.59
2018-11-26T02:53:56.242Z,52.31
2018-11-26T02:54:56.172Z,52.50
2018-11-26T02:56:49.491Z,52.87
2018-11-26T02:57:49.430Z,53.45
2018-11-26T02:59:42.780Z,53.07
2018-11-26T03:00:42.715Z,53.35
2018-11-26T03:02:36.036Z,54.11
2018-11-26T03:03:35.989Z,53.64
2018-11-26T03:05:29.292Z,53.16
2018-11-26T03:06:29.216Z,53.26
2018-11-26T03:08:22.548Z,53.26
2018-11-26T03:09:22.482Z,52.78
2018-11-26T03:11:15.771Z,52.69
2018-11-26T03:12:15.734Z,52.78
2018-11-26T03:14:08.630Z,53.07
2018-11-26T03:15:08.542Z,52.97
2018-11-26T03:17:01.919Z,54.49
2018-11-26T03:18:01.288Z,53.73
2018-11-26T03:19:54.589Z,53.16
2018-11-26T03:20:54.547Z,53.07
2018-11-26T03:22:47.834Z,53.07
2018-11-26T03:23:47.824Z,54.02
2018-11-26T03:25:42.133Z,53.73
2018-11-26T03:26:42.084Z,53.26
2018-11-26T03:28:34.879Z,53.16
2018-11-26T03:29:34.824Z,53.16
2018-11-26T03:31:28.142Z,53.07
2018-11-26T03:32:28.097Z,53.07
2018-11-26T03:34:21.465Z,53.16
2018-11-26T03:35:21.390Z,53.83
2018-11-26T03:37:14.734Z,53.73
2018-11-26T03:38:14.673Z,54.11
2018-11-26T03:40:07.993Z,53.45
2018-11-26T03:41:07.951Z,54.02
2018-11-26T03:43:00.788Z,54.49
2018-11-26T03:44:00.685Z,54.21
2018-11-26T03:45:54.004Z,54.39
2018-11-26T03:46:53.939Z,54.68
2018-11-26T03:48:47.274Z,54.68
2018-11-26T03:49:47.219Z,54.87
2018-11-26T03:51:40.568Z,55.44
2018-11-26T03:52:40.469Z,55.25
2018-11-26T03:54:33.778Z,55.91
2018-11-26T03:55:33.734Z,56.29
2018-11-26T03:57:27.070Z,56.20
2018-11-26T03:58:27.001Z,56.49
2018-11-26T04:00:20.319Z,55.73
2018-11-26T04:01:20.281Z,55.35
2018-11-26T04:03:13.095Z,53.83
2018-11-26T04:04:13.050Z,53.26
2018-11-26T04:06:06.385Z,52.22
2018-11-26T04:07:06.346Z,51.93
2018-11-26T04:09:00.629Z,51.93
2018-11-26T04:10:00.611Z,52.02
2018-11-26T04:11:54.021Z,51.17
2018-11-26T04:12:53.846Z,51.26
2018-11-26T04:14:47.154Z,51.36
2018-11-26T04:15:47.117Z,50.79
2018-11-26T04:17:40.429Z,50.98
2018-11-26T04:18:40.366Z,50.31
2018-11-26T04:20:33.655Z,50.79
2018-11-26T04:21:33.627Z,50.70
2018-11-26T04:23:26.950Z,50.41
2018-11-26T04:24:26.880Z,49.93
2018-11-26T04:26:20.240Z,50.31
2018-11-26T04:27:20.176Z,49.55
2018-11-26T04:29:12.951Z,49.84
2018-11-26T04:30:12.936Z,49.74
2018-11-26T04:32:06.243Z,49.65
2018-11-26T04:33:06.205Z,49.27
2018-11-26T04:34:59.477Z,48.70
2018-11-26T04:35:59.435Z,49.08
2018-11-26T04:37:52.283Z,48.61
2018-11-26T04:38:52.232Z,48.68
2018-11-26T04:40:45.516Z,48.41
2018-11-26T04:41:45.441Z,48.22
2018-11-26T04:43:38.835Z,47.94
2018-11-26T04:44:38.727Z,48.03
2018-11-26T04:46:32.046Z,47.16
2018-11-26T04:47:31.995Z,47.16
2018-11-26T04:49:25.313Z,46.97
2018-11-26T04:50:25.273Z,46.88
2018-11-26T04:52:18.548Z,46.80
2018-11-26T04:53:18.490Z,46.78
2018-11-26T04:55:11.347Z,46.70
2018-11-26T04:56:11.277Z,46.51
2018-11-26T04:58:04.117Z,47.44
2018-11-26T04:59:04.044Z,46.59
2018-11-26T05:00:57.391Z,46.59
2018-11-26T05:01:57.301Z,46.49
2018-11-26T05:03:50.619Z,46.88
2018-11-26T05:04:50.588Z,47.34
2018-11-26T05:06:43.884Z,47.16
2018-11-26T05:07:43.812Z,47.34
2018-11-26T05:09:37.244Z,47.16
2018-11-26T05:10:37.069Z,47.25
2018-11-26T05:12:30.382Z,48.20
2018-11-26T05:13:30.375Z,47.82
2018-11-26T05:15:23.677Z,47.63
2018-11-26T05:16:23.608Z,48.11
2018-11-26T05:18:16.898Z,48.13
2018-11-26T05:19:16.890Z,47.75
2018-11-26T05:21:10.179Z,48.32
2018-11-26T05:22:10.138Z,48.13
2018-11-26T05:24:03.457Z,48.61
2018-11-26T05:25:03.400Z,48.99
2018-11-26T05:26:56.704Z,48.70
2018-11-26T05:27:56.636Z,48.89
2018-11-26T05:29:49.973Z,48.32
2018-11-26T05:30:49.921Z,48.99
2018-11-26T05:32:42.732Z,48.61
2018-11-26T05:33:42.674Z,48.22
2018-11-26T05:35:35.979Z,48.41
2018-11-26T05:36:35.945Z,48.51
2018-11-26T05:38:29.293Z,48.51
2018-11-26T05:39:29.206Z,48.22
2018-11-26T05:41:22.525Z,48.32
2018-11-26T05:42:28.692Z,48.51
2018-11-26T05:44:15.787Z,48.41
2018-11-26T05:45:15.759Z,48.51
2018-11-26T05:47:08.580Z,48.32
2018-11-26T05:48:08.532Z,48.03
2018-11-26T05:50:01.849Z,48.03
2018-11-26T05:51:01.786Z,48.22
2018-11-26T05:52:55.124Z,48.13
2018-11-26T05:53:55.068Z,48.22
2018-11-26T05:55:48.399Z,48.22
2018-11-26T05:56:48.299Z,47.94
2018-11-26T05:58:41.101Z,48.22
2018-11-26T05:59:41.073Z,48.03
2018-11-26T06:01:33.900Z,48.41
2018-11-26T06:02:33.838Z,48.32
2018-11-26T06:04:27.120Z,48.41
2018-11-26T06:05:27.074Z,48.51
2018-11-26T06:07:19.915Z,48.61
2018-11-26T06:08:19.875Z,48.51
2018-11-26T06:10:12.668Z,48.80
2018-11-26T06:11:12.621Z,48.61
2018-11-26T06:13:06.991Z,48.61
2018-11-26T06:14:06.880Z,48.70
2018-11-26T06:16:00.206Z,49.15
2018-11-26T06:17:00.166Z,49.18
2018-11-26T06:18:52.979Z,48.68
2018-11-26T06:19:52.955Z,48.61
2018-11-26T06:21:45.765Z,48.77
2018-11-26T06:22:45.705Z,48.77
2018-11-26T06:24:38.975Z,49.24
2018-11-26T06:25:38.936Z,49.55
2018-11-26T06:27:32.250Z,50.60
2018-11-26T06:28:32.773Z,50.41
2018-11-26T06:30:26.491Z,51.26
2018-11-26T06:31:26.438Z,51.26
2018-11-26T06:33:19.750Z,51.55
2018-11-26T06:34:19.691Z,51.55
2018-11-26T06:36:13.010Z,51.83
2018-11-26T06:37:12.958Z,51.93
2018-11-26T06:39:06.261Z,52.12
2018-11-26T06:40:06.260Z,51.83
2018-11-26T06:42:00.571Z,51.83
2018-11-26T06:43:00.496Z,52.22
2018-11-26T06:44:53.778Z,52.40
2018-11-26T06:45:53.727Z,52.40
2018-11-26T06:47:47.017Z,52.69
2018-11-26T06:48:46.958Z,52.59
2018-11-26T06:50:40.251Z,52.50
2018-11-26T06:51:40.247Z,52.78
2018-11-26T06:53:33.546Z,53.26
2018-11-26T06:54:33.487Z,52.97
2018-11-26T06:56:26.816Z,52.69
2018-11-26T06:57:26.755Z,52.59
2018-11-26T06:59:19.608Z,52.78
2018-11-26T07:00:19.546Z,52.50
2018-11-26T07:02:12.816Z,52.31
2018-11-26T07:03:12.771Z,52.50
2018-11-26T07:05:06.097Z,52.87
2018-11-26T07:06:06.034Z,52.78
2018-11-26T07:08:00.371Z,52.22
2018-11-26T07:09:00.318Z,52.31
2018-11-26T07:10:53.636Z,51.74
2018-11-26T07:11:53.578Z,51.83
2018-11-26T07:13:47.181Z,52.02
2018-11-26T07:14:46.842Z,52.02
2018-11-26T07:16:40.153Z,52.22
2018-11-26T07:17:40.108Z,51.64
2018-11-26T07:19:33.429Z,52.22
2018-11-26T07:20:34.042Z,52.22
2018-11-26T07:22:26.668Z,52.59
2018-11-26T07:23:26.627Z,52.69
2018-11-26T07:25:19.948Z,53.64
2018-11-26T07:26:19.900Z,53.16
2018-11-26T07:28:13.198Z,52.59
2018-11-26T07:29:13.135Z,53.07
2018-11-26T07:31:05.997Z,52.97
2018-11-26T07:32:05.905Z,53.35
2018-11-26T07:34:01.222Z,53.35
2018-11-26T07:35:01.160Z,53.54
2018-11-26T07:36:54.482Z,53.92
2018-11-26T07:37:54.446Z,54.11
2018-11-26T07:39:47.758Z,54.21
2018-11-26T07:40:47.694Z,54.68
2018-11-26T07:42:41.008Z,54.02
2018-11-26T07:43:40.974Z,54.21
2018-11-26T07:45:34.238Z,54.58
2018-11-26T07:46:34.205Z,54.30
2018-11-26T07:48:27.519Z,54.78
2018-11-26T07:49:27.451Z,54.30
2018-11-26T07:51:20.798Z,54.39
2018-11-26T07:52:20.724Z,55.35
2018-11-26T07:54:14.023Z,54.49
2018-11-26T07:55:13.991Z,54.78
2018-11-26T07:57:07.333Z,55.44
2018-11-26T07:58:07.244Z,54.58
2018-11-26T08:00:00.547Z,54.68
2018-11-26T08:01:00.514Z,55.54
2018-11-26T08:02:53.829Z,56.01
2018-11-26T08:03:53.793Z,55.25
2018-11-26T08:05:47.077Z,55.16
2018-11-26T08:06:47.033Z,55.35
2018-11-26T08:08:40.392Z,55.35
2018-11-26T08:09:40.296Z,55.63
2018-11-26T08:11:34.744Z,55.44
2018-11-26T08:12:34.581Z,55.44
2018-11-26T08:14:27.886Z,54.39
2018-11-26T08:15:27.879Z,54.68
2018-11-26T08:17:21.186Z,54.78
2018-11-26T08:18:21.091Z,54.21
2018-11-26T08:20:14.373Z,53.26
2018-11-26T08:21:14.350Z,54.68
2018-11-26T08:23:07.679Z,55.35
2018-11-26T08:24:07.583Z,55.35
2018-11-26T08:26:00.903Z,55.44
2018-11-26T08:27:00.849Z,56.29
2018-11-26T08:28:54.164Z,56.23
2018-11-26T08:29:54.108Z,56.01
2018-11-26T08:31:47.411Z,56.32
2018-11-26T08:32:47.366Z,56.32
2018-11-26T08:34:40.690Z,56.10
2018-11-26T08:35:40.624Z,56.20
2018-11-26T08:37:33.970Z,56.49
2018-11-26T08:38:33.885Z,55.35
2018-11-26T08:40:27.206Z,56.51
2018-11-26T08:41:27.146Z,56.70
2018-11-26T08:43:20.457Z,57.34
2018-11-26T08:44:20.396Z,57.28
2018-11-26T08:46:14.702Z,57.56
2018-11-26T08:47:14.692Z,56.89
2018-11-26T08:49:08.008Z,58.51
2018-11-26T08:50:07.908Z,58.32
2018-11-26T08:52:01.207Z,57.65
2018-11-26T08:53:01.159Z,58.80
2018-11-26T08:54:54.486Z,59.55
2018-11-26T08:55:54.471Z,60.22
2018-11-26T08:57:47.707Z,60.13
2018-11-26T08:58:47.694Z,60.03
2018-11-26T09:00:40.992Z,60.79
2018-11-26T09:01:40.978Z,60.22
2018-11-26T09:03:34.274Z,60.31
2018-11-26T09:04:34.211Z,59.74
2018-11-26T09:06:27.497Z,61.83
2018-11-26T09:07:27.477Z,62.02
2018-11-26T09:09:20.803Z,63.26
2018-11-26T09:10:20.759Z,62.31
2018-11-26T09:12:14.039Z,61.74
2018-11-26T09:13:13.989Z,62.12
2018-11-26T09:15:07.324Z,60.79
2018-11-26T09:16:07.262Z,62.69
2018-11-26T09:18:00.102Z,60.22
2018-11-26T09:19:00.031Z,60.03
2018-11-26T09:20:53.348Z,60.50
2018-11-26T09:21:53.289Z,62.50
2018-11-26T09:23:46.574Z,61.07
2018-11-26T09:24:46.538Z,62.59
2018-11-26T09:26:39.842Z,63.92
2018-11-26T09:27:39.804Z,62.88
2018-11-26T09:29:34.109Z,62.12
2018-11-26T09:30:34.053Z,61.74
2018-11-26T09:32:27.348Z,61.74
2018-11-26T09:33:27.309Z,62.31
2018-11-26T09:35:20.613Z,61.26
2018-11-26T09:36:20.568Z,61.36
2018-11-26T09:38:13.860Z,61.65
2018-11-26T09:39:13.821Z,61.07
2018-11-26T09:41:07.160Z,62.69
2018-11-26T09:42:07.119Z,61.65
2018-11-26T09:43:59.905Z,62.02
2018-11-26T09:44:59.845Z,61.83
2018-11-26T09:46:53.163Z,61.83
2018-11-26T09:47:53.101Z,63.35
2018-11-26T09:49:46.416Z,63.92
2018-11-26T09:50:46.390Z,64.21
2018-11-26T09:52:39.205Z,64.02
2018-11-26T09:53:39.162Z,63.07
2018-11-26T09:55:32.469Z,64.02
2018-11-26T09:56:32.404Z,64.30
2018-11-26T09:58:25.259Z,62.69
2018-11-26T09:59:25.169Z,64.30
2018-11-26T10:01:18.479Z,64.97
2018-11-26T10:02:18.423Z,64.30
2018-11-26T10:04:11.206Z,63.26
2018-11-26T10:05:11.176Z,64.11
2018-11-26T10:07:05.497Z,64.40
2018-11-26T10:08:05.431Z,64.97
2018-11-26T10:09:58.745Z,64.21
2018-11-26T10:10:58.730Z,66.77
2018-11-26T10:12:52.025Z,64.97
2018-11-26T10:13:51.962Z,66.49
2018-11-26T10:15:45.280Z,66.58
2018-11-26T10:16:45.244Z,65.92
2018-11-26T10:18:38.562Z,65.63
2018-11-26T10:19:38.501Z,65.35
2018-11-26T10:21:31.336Z,67.25
2018-11-26T10:22:31.279Z,66.87
2018-11-26T10:24:24.581Z,66.87
2018-11-26T10:25:24.528Z,68.19
2018-11-26T10:27:18.856Z,66.67
2018-11-26T10:28:18.807Z,65.92
2018-11-26T10:30:11.597Z,65.44
2018-11-26T10:31:11.565Z,66.49
2018-11-26T10:33:04.880Z,66.49
2018-11-26T10:34:04.810Z,67.82
2018-11-26T10:35:57.608Z,66.39
2018-11-26T10:36:57.576Z,66.49
2018-11-26T10:38:50.432Z,67.34
2018-11-26T10:39:50.376Z,66.67
2018-11-26T10:41:43.171Z,68.77
2018-11-26T10:42:43.163Z,69.71
2018-11-26T10:44:36.459Z,68.29
2018-11-26T10:45:36.376Z,68.67
2018-11-26T10:47:29.703Z,67.34
2018-11-26T10:48:29.632Z,68.19
2018-11-26T10:50:22.947Z,67.63
2018-11-26T10:51:22.887Z,68.58
2018-11-26T10:53:16.223Z,68.10
2018-11-26T10:54:16.158Z,68.29
2018-11-26T10:56:09.467Z,68.19
2018-11-26T10:57:09.436Z,68.29
2018-11-26T10:59:02.737Z,67.15
2018-11-26T11:00:02.677Z,67.06
2018-11-26T11:01:55.994Z,67.06
2018-11-26T11:02:55.951Z,67.25
2018-11-26T11:04:49.258Z,67.72
2018-11-26T11:05:49.203Z,68.19
2018-11-26T11:07:42.509Z,68.77
2018-11-26T11:08:42.459Z,68.77
2018-11-26T11:10:35.789Z,67.34
2018-11-26T11:11:35.730Z,68.19
2018-11-26T11:13:28.529Z,67.82
2018-11-26T11:14:28.495Z,69.81
2018-11-26T11:16:21.808Z,68.29
2018-11-26T11:17:21.751Z,68.48
2018-11-26T11:19:15.063Z,67.72
2018-11-26T11:20:15.004Z,67.25
2018-11-26T11:22:08.322Z,68.29
2018-11-26T11:23:08.265Z,68.48
2018-11-26T11:25:01.599Z,68.29
2018-11-26T11:26:01.530Z,67.72
2018-11-26T11:27:55.733Z,69.71
2018-11-26T11:28:54.818Z,69.24
2018-11-26T11:30:48.089Z,68.29
2018-11-26T11:31:48.030Z,68.77
2018-11-26T11:33:41.326Z,66.87
2018-11-26T11:34:41.286Z,67.06
2018-11-26T11:36:34.632Z,67.91
2018-11-26T11:37:34.550Z,67.72
2018-11-26T11:39:27.829Z,68.67
2018-11-26T11:40:27.793Z,68.48
2018-11-26T11:42:21.129Z,69.53
2018-11-26T11:43:21.080Z,68.01
2018-11-26T11:45:14.375Z,69.05
2018-11-26T11:46:14.320Z,67.91
2018-11-26T11:48:07.604Z,69.71
2018-11-26T11:49:07.568Z,68.67
2018-11-26T11:51:00.881Z,68.67
2018-11-26T11:52:00.835Z,68.10
2018-11-26T11:53:54.124Z,67.34
2018-11-26T11:54:54.081Z,67.34
2018-11-26T11:56:47.408Z,67.53
2018-11-26T11:57:47.353Z,68.10
2018-11-26T11:59:40.139Z,67.82
2018-11-26T12:00:40.119Z,68.10
2018-11-26T12:02:33.421Z,67.91
2018-11-26T12:03:33.370Z,67.82
2018-11-26T12:05:26.653Z,67.82
2018-11-26T12:06:26.604Z,68.67
2018-11-26T12:08:19.920Z,68.48
2018-11-26T12:09:19.846Z,68.01
2018-11-26T12:11:13.166Z,67.82
2018-11-26T12:12:13.102Z,68.19
2018-11-26T12:14:06.409Z,68.77
2018-11-26T12:15:06.372Z,68.67
2018-11-26T12:16:59.190Z,67.82
2018-11-26T12:17:59.132Z,68.77
2018-11-26T12:19:52.428Z,68.10
2018-11-26T12:20:52.382Z,68.77
2018-11-26T12:22:45.204Z,67.72
2018-11-26T12:23:45.142Z,68.48
2018-11-26T12:25:38.433Z,69.91
2018-11-26T12:26:38.402Z,68.58
2018-11-26T12:28:31.712Z,67.06
2018-11-26T12:29:31.651Z,68.01
2018-11-26T12:31:24.953Z,67.72
2018-11-26T12:32:24.910Z,67.53
2018-11-26T12:34:18.237Z,67.91
2018-11-26T12:35:18.192Z,67.72
2018-11-26T12:37:11.521Z,68.67
2018-11-26T12:38:11.434Z,67.15
2018-11-26T12:40:04.728Z,66.90
2018-11-26T12:41:04.698Z,68.23
2018-11-26T12:42:58.008Z,68.52
2018-11-26T12:43:57.945Z,68.71
2018-11-26T12:45:51.261Z,69.75
2018-11-26T12:46:51.208Z,68.90
2018-11-26T12:48:44.546Z,67.85
2018-11-26T12:49:44.485Z,67.47
2018-11-26T12:51:37.788Z,68.61
2018-11-26T12:52:37.741Z,69.18
2018-11-26T12:54:30.563Z,68.80
2018-11-26T12:55:30.515Z,69.56
2018-11-26T12:57:23.312Z,68.23
2018-11-26T12:58:23.284Z,69.18
2018-11-26T13:00:16.118Z,68.99
2018-11-26T13:01:16.040Z,68.90
2018-11-26T13:03:09.342Z,67.47
2018-11-26T13:04:09.287Z,69.27
2018-11-26T13:06:02.584Z,68.04
2018-11-26T13:07:02.974Z,69.56
2018-11-26T13:08:55.369Z,68.52
2018-11-26T13:09:55.283Z,68.90
2018-11-26T13:11:48.113Z,69.46
2018-11-26T13:12:48.044Z,68.90
2018-11-26T13:14:40.870Z,69.94
2018-11-26T13:15:40.805Z,69.46
2018-11-26T13:17:34.108Z,68.13
2018-11-26T13:18:34.074Z,68.99
2018-11-26T13:20:27.380Z,68.99
2018-11-26T13:21:27.304Z,68.04
2018-11-26T13:23:20.105Z,67.28
2018-11-26T13:24:20.059Z,68.52
2018-11-26T13:26:12.875Z,67.00
2018-11-26T13:27:12.826Z,66.71
2018-11-26T13:29:06.114Z,67.53
2018-11-26T13:30:06.069Z,66.39
2018-11-26T13:31:59.378Z,65.63
2018-11-26T13:32:59.356Z,65.00
2018-11-26T13:34:52.625Z,65.09
2018-11-26T13:35:52.581Z,64.90
2018-11-26T13:37:45.400Z,66.52
2018-11-26T13:38:45.335Z,66.05
2018-11-26T13:40:38.161Z,65.73
2018-11-26T13:41:38.095Z,64.78
2018-11-26T13:43:30.895Z,65.16
2018-11-26T13:44:30.877Z,65.00
2018-11-26T13:46:23.677Z,64.49
2018-11-26T13:47:23.609Z,64.11
2018-11-26T13:49:16.897Z,63.83
2018-11-26T13:50:16.866Z,63.64
2018-11-26T13:52:09.681Z,63.73
2018-11-26T13:53:09.624Z,63.35
2018-11-26T13:55:02.407Z,62.50
2018-11-26T13:56:02.366Z,61.83
2018-11-26T13:57:56.697Z,62.97
2018-11-26T13:58:56.639Z,62.97
2018-11-26T14:00:49.924Z,62.97
2018-11-26T14:01:49.877Z,62.88
2018-11-26T14:03:43.216Z,61.74
2018-11-26T14:04:43.136Z,62.12
2018-11-26T14:06:36.478Z,63.45
2018-11-26T14:07:36.404Z,62.50
2018-11-26T14:09:29.728Z,62.40
2018-11-26T14:10:29.663Z,62.97
2018-11-26T14:12:23.001Z,62.40
2018-11-26T14:13:22.913Z,63.07
2018-11-26T14:15:16.201Z,63.73
2018-11-26T14:16:16.189Z,64.87
2018-11-26T14:18:08.981Z,64.30
2018-11-26T14:19:08.933Z,63.64
2018-11-26T14:21:02.217Z,64.11
2018-11-26T14:22:02.187Z,63.73
2018-11-26T14:23:55.514Z,63.26
2018-11-26T14:24:55.462Z,63.64
2018-11-26T14:26:48.764Z,63.73
2018-11-26T14:27:48.704Z,62.97
2018-11-26T14:29:41.540Z,63.17
2018-11-26T14:30:41.469Z,64.87
2018-11-26T14:32:34.765Z,63.73
2018-11-26T14:33:34.737Z,63.92
2018-11-26T14:35:28.038Z,64.02
2018-11-26T14:36:28.021Z,64.02
2018-11-26T14:38:20.809Z,62.69
2018-11-26T14:39:20.749Z,62.69
2018-11-26T14:41:14.030Z,63.73
2018-11-26T14:42:14.003Z,63.45
2018-11-26T14:44:06.809Z,64.02
2018-11-26T14:45:06.753Z,64.30
2018-11-26T14:47:00.060Z,63.73
2018-11-26T14:48:00.007Z,64.87
2018-11-26T14:49:52.834Z,64.02
2018-11-26T14:50:52.760Z,63.45
2018-11-26T14:52:45.564Z,64.30
2018-11-26T14:53:45.516Z,63.73
2018-11-26T14:55:38.335Z,64.11
2018-11-26T14:56:38.280Z,63.45
2018-11-26T14:58:31.066Z,64.69
2018-11-26T14:59:31.039Z,64.21
2018-11-26T15:01:24.330Z,63.64
2018-11-26T15:02:24.279Z,62.97
2018-11-26T15:04:17.099Z,64.02
2018-11-26T15:05:17.041Z,63.73
2018-11-26T15:07:09.840Z,63.73
2018-11-26T15:08:09.805Z,63.92
2018-11-26T15:10:02.615Z,64.02
2018-11-26T15:11:02.550Z,64.87
2018-11-26T15:12:55.360Z,63.92
2018-11-26T15:13:55.311Z,64.87
2018-11-26T15:15:48.147Z,64.87
2018-11-26T15:16:48.077Z,64.11
2018-11-26T15:18:41.362Z,63.83
2018-11-26T15:19:41.319Z,63.35
2018-11-26T15:21:34.637Z,63.07
2018-11-26T15:22:34.586Z,62.97
2018-11-26T15:24:27.377Z,61.93
2018-11-26T15:25:27.351Z,61.07
2018-11-26T15:27:20.650Z,61.17
2018-11-26T15:28:20.600Z,61.07
2018-11-26T15:30:13.401Z,60.50
2018-11-26T15:31:13.350Z,59.93
2018-11-26T15:33:06.138Z,59.93
2018-11-26T15:34:06.102Z,59.55
2018-11-26T15:35:58.930Z,58.89
2018-11-26T15:36:58.867Z,58.70
2018-11-26T15:38:52.142Z,57.56
2018-11-26T15:39:52.104Z,57.46
2018-11-26T15:41:44.927Z,58.22
2018-11-26T15:42:44.871Z,58.32
2018-11-26T15:44:37.671Z,58.32
2018-11-26T15:45:37.621Z,58.61
2018-11-26T15:47:30.942Z,59.36
2018-11-26T15:48:30.886Z,59.27
2018-11-26T15:50:23.682Z,58.98
2018-11-26T15:51:23.635Z,58.41
2018-11-26T15:53:16.459Z,57.84
2018-11-26T15:54:16.391Z,57.84
2018-11-26T15:56:09.207Z,57.75
2018-11-26T15:57:09.142Z,58.41
2018-11-26T15:59:01.943Z,58.03
2018-11-26T16:00:01.946Z,57.84
2018-11-26T16:01:54.735Z,58.03
2018-11-26T16:02:54.669Z,58.61
2018-11-26T16:04:47.470Z,59.08
2018-11-26T16:05:47.427Z,58.51
2018-11-26T16:07:40.742Z,58.70
2018-11-26T16:08:40.678Z,59.08
2018-11-26T16:10:33.495Z,58.95
2018-11-26T16:11:33.435Z,58.67
2018-11-26T16:13:26.758Z,58.41
2018-11-26T16:14:26.699Z,58.00
2018-11-26T16:16:19.496Z,58.29
2018-11-26T16:17:19.451Z,57.84
2018-11-26T16:19:12.266Z,57.62
2018-11-26T16:20:12.228Z,57.72
2018-11-26T16:22:05.019Z,58.03
2018-11-26T16:23:04.983Z,58.29
2018-11-26T16:24:57.798Z,58.29
2018-11-26T16:25:57.724Z,58.48
2018-11-26T16:27:51.059Z,57.62
2018-11-26T16:28:50.995Z,57.81
2018-11-26T16:30:43.785Z,58.10
2018-11-26T16:31:43.745Z,58.29
2018-11-26T16:33:37.555Z,58.86
2018-11-26T16:34:37.485Z,58.58
2018-11-26T16:36:30.299Z,58.76
2018-11-26T16:37:30.240Z,58.58
2018-11-26T16:39:23.554Z,58.76
2018-11-26T16:40:23.499Z,59.14
2018-11-26T16:42:16.800Z,59.43
2018-11-26T16:43:16.774Z,59.71
2018-11-26T16:45:09.560Z,58.95
2018-11-26T16:46:09.564Z,58.95
2018-11-26T16:48:02.297Z,59.05
2018-11-26T16:49:02.257Z,60.00
2018-11-26T16:50:55.084Z,59.71
2018-11-26T16:51:55.009Z,59.43
2018-11-26T16:53:48.331Z,59.71
2018-11-26T16:54:48.266Z,59.91
2018-11-26T16:56:41.616Z,59.81
2018-11-26T16:57:41.525Z,60.10
2018-11-26T16:59:34.851Z,61.14
2018-11-26T17:00:34.781Z,61.71
2018-11-26T17:02:27.585Z,61.71
2018-11-26T17:03:27.541Z,62.85
2018-11-26T17:05:20.862Z,63.13
2018-11-26T17:06:20.803Z,63.04
2018-11-26T17:08:13.612Z,64.08
2018-11-26T17:09:13.547Z,64.27
2018-11-26T17:11:06.867Z,63.70
2018-11-26T17:12:06.806Z,63.23
2018-11-26T17:13:59.611Z,63.79
2018-11-26T17:14:59.563Z,63.70
2018-11-26T17:16:52.380Z,63.32
2018-11-26T17:17:52.333Z,63.79
2018-11-26T17:19:45.783Z,63.98
2018-11-26T17:20:45.084Z,64.75
2018-11-26T17:22:37.886Z,63.42
2018-11-26T17:23:37.828Z,63.98
2018-11-26T17:25:30.638Z,65.03
2018-11-26T17:26:30.597Z,65.60
2018-11-26T17:28:23.414Z,65.41
2018-11-26T17:29:23.339Z,65.12
2018-11-26T17:31:16.686Z,65.50
2018-11-26T17:32:16.594Z,66.08
2018-11-26T17:34:09.902Z,66.93
2018-11-26T17:35:09.852Z,66.83
2018-11-26T17:37:03.171Z,66.08
2018-11-26T17:38:03.103Z,66.93
2018-11-26T17:39:55.903Z,66.46
2018-11-26T17:40:55.854Z,66.74
2018-11-26T17:42:49.174Z,66.36
2018-11-26T17:43:49.114Z,66.93
2018-11-26T17:45:41.926Z,65.98
2018-11-26T17:46:41.878Z,66.93
2018-11-26T17:48:34.697Z,66.46
2018-11-26T17:49:34.629Z,67.21
2018-11-26T17:51:27.433Z,66.36
2018-11-26T17:52:27.417Z,66.83
2018-11-26T17:54:20.703Z,67.21
2018-11-26T17:55:20.643Z,66.74
2018-11-26T17:57:13.468Z,67.31
2018-11-26T17:58:13.400Z,66.64
2018-11-26T18:00:06.712Z,67.02
2018-11-26T18:01:06.662Z,67.50
2018-11-26T18:02:59.479Z,67.97
2018-11-26T18:03:59.438Z,68.07
2018-11-26T18:05:52.203Z,67.97
2018-11-26T18:06:52.220Z,67.50
2018-11-26T18:08:44.993Z,67.79
2018-11-26T18:09:44.946Z,66.64
2018-11-26T18:11:37.733Z,67.88
2018-11-26T18:12:37.688Z,67.59
2018-11-26T18:14:30.575Z,67.97
2018-11-26T18:15:30.441Z,68.83
2018-11-26T18:17:23.230Z,68.83
2018-11-26T18:18:23.939Z,68.54
2018-11-26T18:20:16.026Z,68.26
2018-11-26T18:21:15.941Z,68.54
2018-11-26T18:23:09.226Z,68.44
2018-11-26T18:24:09.209Z,68.73
2018-11-26T18:26:02.007Z,68.44
2018-11-26T18:27:01.955Z,68.54
2018-11-26T18:28:54.799Z,69.59
2018-11-26T18:29:54.695Z,70.35
2018-11-26T18:31:47.623Z,69.87
2018-11-26T18:32:47.451Z,69.59
2018-11-26T18:34:40.780Z,69.87